Time;durP1;ratioP1;P1;durP2;ratioP2;P2;SDS_P1;SDS_P2;PMS_P1;PMS_P2;Temp;Humidity;BMP_temperature;BMP_pressure;BME280_temperature;BME280_humidity;BME280_pressure;Samples;Min_cycle;Max_cycle;Signal;HPM_P1;HPM_P2
2022/01/18 00:00:37;;;;;;;61.28;10.73;;;;;;;3.88;96.92;103788.63;5032212;28;20072;-43
2022/01/18 00:03:03;;;;;;;53.97;8.70;;;;;;;3.90;96.92;103794.75;5032326;28;20025;-43
2022/01/18 00:05:28;;;;;;;76.47;10.73;;;;;;;3.89;97.32;103793.00;5032228;28;20496;-43
2022/01/18 00:07:54;;;;;;;71.63;10.70;;;;;;;3.91;97.04;103791.16;5031515;28;20055;-43
2022/01/18 00:10:21;;;;;;;71.35;11.18;;;;;;;3.90;97.38;103789.44;5013885;28;20072;-42
2022/01/18 00:13:09;;;;;;;74.35;11.05;;;;;;;3.91;96.96;103796.47;5032151;28;20021;-43
2022/01/18 00:15:55;;;;;;;51.95;9.90;;;;;;;3.90;96.77;103798.28;5031770;28;20030;-42
2022/01/18 00:18:21;;;;;;;57.42;9.05;;;;;;;3.87;96.65;103801.09;5031887;28;20034;-42
2022/01/18 00:20:59;;;;;;;61.85;8.52;;;;;;;3.91;96.88;103801.81;5030305;28;20033;-42
2022/01/18 00:23:25;;;;;;;61.05;8.15;;;;;;;3.95;96.97;103806.09;5030792;28;20025;-43
2022/01/18 00:25:54;;;;;;;72.00;10.52;;;;;;;3.93;96.93;103802.63;5032089;28;20048;-43
2022/01/18 00:28:21;;;;;;;58.60;9.98;;;;;;;3.91;96.42;103816.00;5032030;28;20048;-42
2022/01/18 00:33:26;;;;;;;62.67;9.90;;;;;;;3.86;96.13;103814.47;5031929;28;20472;-42
2022/01/18 00:35:59;;;;;;;60.55;9.65;;;;;;;3.88;96.47;103809.94;5031663;28;20029;-43
2022/01/18 00:38:43;;;;;;;61.17;9.68;;;;;;;3.89;96.46;103819.66;5032047;28;20037;-43
2022/01/18 00:41:08;;;;;;;65.32;11.18;;;;;;;3.88;96.41;103812.59;5031624;28;20037;-43
2022/01/18 00:43:34;;;;;;;67.35;9.75;;;;;;;3.92;96.78;103819.50;5031751;28;20028;-42
2022/01/18 00:45:59;;;;;;;65.15;9.70;;;;;;;3.94;96.90;103810.53;5031763;28;20021;-42
2022/01/18 00:48:24;;;;;;;64.47;8.63;;;;;;;3.96;97.49;103806.00;5031758;28;20022;-43
2022/01/18 00:50:52;;;;;;;63.53;8.95;;;;;;;3.98;97.27;103805.94;5031484;28;20029;-43
2022/01/18 00:53:19;;;;;;;63.10;9.52;;;;;;;3.91;96.61;103799.16;5031410;28;20401;-42
2022/01/18 00:55:52;;;;;;;49.55;9.48;;;;;;;3.91;96.06;103801.81;5031811;28;20071;-42
2022/01/18 00:58:18;;;;;;;52.15;9.07;;;;;;;3.88;95.83;103801.94;5031798;28;20374;-43
2022/01/18 01:00:43;;;;;;;61.33;10.15;;;;;;;3.87;96.03;103808.19;5031312;28;20036;-42
2022/01/18 01:03:08;;;;;;;92.93;9.85;;;;;;;3.83;96.22;103810.13;5031524;28;20021;-42
2022/01/18 01:05:34;;;;;;;56.22;9.95;;;;;;;3.81;96.00;103804.00;5031335;28;20108;-43
2022/01/18 01:08:00;;;;;;;76.25;9.13;;;;;;;3.81;96.62;103795.13;5033647;28;20033;-43
2022/01/18 01:10:25;;;;;;;64.88;9.77;;;;;;;3.86;97.07;103804.66;5035180;28;20063;-42
2022/01/18 01:12:51;;;;;;;72.07;10.25;;;;;;;3.89;97.24;103796.53;5034063;28;20035;-43
2022/01/18 01:15:19;;;;;;;52.72;8.73;;;;;;;3.93;97.21;103799.94;5034712;28;20040;-42
2022/01/18 01:17:52;;;;;;;69.03;11.60;;;;;;;3.93;97.02;103794.63;5034568;28;20037;-43
2022/01/18 01:34:30;;;;;;;82.15;8.68;;;;;;;3.80;97.07;103793.41;5034929;28;20492;-42
2022/01/18 01:45:17;;;;;;;72.88;8.65;;;;;;;3.77;97.49;103788.22;5035057;28;20076;-43
2022/01/18 01:47:46;;;;;;;69.63;7.60;;;;;;;3.76;98.05;103797.13;5040160;28;20052;-43
2022/01/18 01:50:17;;;;;;;61.90;7.65;;;;;;;3.72;97.93;103799.94;5039550;28;20452;-44
2022/01/18 01:52:43;;;;;;;48.80;7.50;;;;;;;3.72;97.43;103791.94;5034307;28;20033;-43
2022/01/18 01:55:09;;;;;;;71.82;8.35;;;;;;;3.74;97.67;103798.06;5033697;28;20025;-43
2022/01/18 01:57:34;;;;;;;66.30;7.68;;;;;;;3.74;97.54;103791.88;5033791;28;20367;-42
2022/01/18 02:00:06;;;;;;;67.25;9.95;;;;;;;3.71;96.52;103795.53;5034374;28;20026;-42
2022/01/18 02:02:31;;;;;;;59.63;8.05;;;;;;;3.71;96.24;103799.97;5033083;28;20037;-43
2022/01/18 02:04:56;;;;;;;46.70;8.45;;;;;;;3.71;96.73;103794.66;5034137;28;20036;-44
2022/01/18 02:07:22;;;;;;;69.72;9.80;;;;;;;3.69;96.91;103797.41;5034324;28;20029;-43
2022/01/18 02:09:47;;;;;;;51.75;7.10;;;;;;;3.69;97.10;103800.06;5032429;28;20555;-42
2022/01/18 02:12:13;;;;;;;63.15;8.15;;;;;;;3.68;97.03;103795.66;5032784;28;20291;-44
2022/01/18 02:14:40;;;;;;;68.13;9.48;;;;;;;3.72;96.96;103799.94;5034070;28;20104;-43
2022/01/18 02:22:33;;;;;;;50.03;7.68;;;;;;;3.72;97.57;103791.94;5047231;28;20499;-42
2022/01/18 02:24:58;;;;;;;47.15;6.82;;;;;;;3.71;97.52;103800.88;5034086;28;20029;-42
2022/01/18 02:27:24;;;;;;;58.95;7.43;;;;;;;3.70;97.27;103793.78;5034091;28;20033;-42
2022/01/18 02:29:49;;;;;;;56.55;6.85;;;;;;;3.72;97.64;103789.28;5032183;28;20052;-42
2022/01/18 02:32:14;;;;;;;54.65;6.32;;;;;;;3.73;97.76;103790.13;5049136;28;20026;-43
2022/01/18 02:34:40;;;;;;;55.60;6.97;;;;;;;3.70;97.54;103793.78;5032076;28;20132;-42
2022/01/18 02:37:05;;;;;;;58.10;7.03;;;;;;;3.71;97.32;103797.31;5033547;28;20120;-44
2022/01/18 02:39:31;;;;;;;58.70;6.90;;;;;;;3.70;97.49;103793.78;5033811;28;20037;-42
2022/01/18 02:41:59;;;;;;;50.45;6.25;;;;;;;3.69;97.70;103792.06;5033877;28;20025;-43
2022/01/18 02:44:26;;;;;;;68.40;7.63;;;;;;;3.71;97.32;103790.22;5033584;28;20018;-44
2022/01/18 02:46:52;;;;;;;48.70;6.15;;;;;;;3.71;97.86;103794.66;5033440;28;20025;-42
2022/01/18 02:49:17;;;;;;;39.30;6.18;;;;;;;3.68;97.69;103790.31;5033260;28;20075;-42
2022/01/18 02:51:43;;;;;;;43.38;5.85;;;;;;;3.65;96.90;103790.44;5028683;28;20048;-44
2022/01/18 02:54:10;;;;;;;48.88;5.35;;;;;;;3.63;96.91;103792.31;5026634;28;20087;-43
2022/01/18 02:56:43;;;;;;;54.25;6.63;;;;;;;3.64;97.61;103793.19;5033474;28;20109;-42
2022/01/18 03:04:17;;;;;;;50.22;6.72;;;;;;;3.66;97.88;103786.88;5032834;28;20140;-42
2022/01/18 03:06:42;;;;;;;57.47;6.32;;;;;;;3.62;97.43;103784.41;5033014;28;20030;-42
2022/01/18 03:09:08;;;;;;;70.53;9.07;;;;;;;3.62;97.40;103785.25;5032460;28;20126;-42
2022/01/18 03:11:33;;;;;;;48.05;6.00;;;;;;;3.58;96.97;103783.66;5031714;28;20025;-43
2022/01/18 03:13:58;;;;;;;45.35;8.00;;;;;;;3.55;96.65;103778.44;5033089;28;20030;-42
2022/01/18 03:16:24;;;;;;;42.88;6.03;;;;;;;3.54;96.91;103791.84;5033185;28;20033;-42
2022/01/18 03:18:49;;;;;;;49.33;6.10;;;;;;;3.50;96.47;103788.41;5048475;28;20033;-42
2022/01/18 03:21:14;;;;;;;44.60;6.40;;;;;;;3.57;97.34;103787.25;5033016;28;20029;-43
2022/01/18 03:23:40;;;;;;;44.97;6.10;;;;;;;3.51;97.12;103782.19;5032730;28;20033;-42
2022/01/18 03:26:14;;;;;;;58.45;6.07;;;;;;;3.54;97.83;103782.06;5033565;28;20028;-42
2022/01/18 03:28:40;;;;;;;48.63;6.95;;;;;;;3.57;97.71;103784.59;5031827;28;20400;-42
2022/01/18 03:31:05;;;;;;;49.30;7.00;;;;;;;3.52;98.17;103787.44;5032558;28;20100;-42
2022/01/18 03:33:31;;;;;;;43.85;5.95;;;;;;;3.51;98.15;103782.19;5032648;28;20026;-42
2022/01/18 03:35:57;;;;;;;67.65;6.40;;;;;;;3.47;97.69;103791.22;5032630;28;20076;-42
2022/01/18 03:38:29;;;;;;;58.75;6.85;;;;;;;3.47;97.34;103791.22;5047601;28;20095;-42
2022/01/18 03:40:58;;;;;;;77.65;6.70;;;;;;;3.48;97.54;103787.66;5031263;28;20026;-42
2022/01/18 03:43:24;;;;;;;57.92;6.00;;;;;;;3.46;98.00;103784.16;5032460;28;20117;-42
2022/01/18 03:45:51;;;;;;;37.22;7.55;;;;;;;3.43;97.69;103790.47;5031116;28;20112;-42
2022/01/18 03:48:39;;;;;;;37.08;5.28;;;;;;;3.41;97.30;103788.81;5033518;28;20052;-41
2022/01/18 03:51:07;;;;;;;39.40;6.40;;;;;;;3.34;97.01;103798.84;5032321;28;20419;-42
2022/01/18 03:53:33;;;;;;;72.35;7.20;;;;;;;3.33;97.62;103797.09;5032139;28;20104;-41
2022/01/18 03:55:58;;;;;;;37.25;6.32;;;;;;;3.30;97.44;103798.09;5032016;28;20472;-42
2022/01/18 03:58:24;;;;;;;27.85;5.95;;;;;;;3.35;97.19;103805.03;5032233;28;20052;-42
2022/01/18 04:00:50;;;;;;;39.63;6.30;;;;;;;3.37;97.39;103800.50;5032061;28;20466;-42
2022/01/18 04:03:16;;;;;;;48.80;8.05;;;;;;;3.37;96.83;103795.19;5031958;28;20057;-42
2022/01/18 04:05:42;;;;;;;56.45;7.50;;;;;;;3.40;96.47;103797.75;5030376;28;20083;-42
2022/01/18 04:08:07;;;;;;;61.38;7.63;;;;;;;3.44;96.94;103800.19;5031859;28;20544;-42
2022/01/18 04:10:33;;;;;;;59.83;9.50;;;;;;;3.46;96.91;103801.00;5031864;28;20025;-42
2022/01/18 04:12:59;;;;;;;38.78;7.75;;;;;;;3.47;96.47;103815.19;5032175;28;20021;-42
2022/01/18 04:15:26;;;;;;;69.20;7.50;;;;;;;3.47;97.23;103807.19;5031591;28;20474;-42
2022/01/18 04:18:08;;;;;;;104.45;11.65;;;;;;;3.50;96.78;103813.28;5031903;28;20022;-42
2022/01/18 04:26:51;;;;;;;84.13;10.63;;;;;;;3.59;97.05;103825.34;5031955;28;20052;-42
2022/01/18 04:28:47;;;;;;;123.78;11.10;;;;;;;3.59;97.66;103827.16;5031947;28;20449;-42
2022/01/18 04:31:13;;;;;;;105.20;10.95;;;;;;;3.54;97.13;103822.00;5032035;28;20030;-42
2022/01/18 04:33:38;;;;;;;84.75;10.35;;;;;;;3.51;97.53;103815.00;5032380;28;20033;-42
2022/01/18 04:36:07;;;;;;;77.65;9.82;;;;;;;3.45;97.15;103817.03;5031950;28;20044;-42
2022/01/18 04:38:34;;;;;;;70.88;10.48;;;;;;;3.41;96.64;103813.63;5031920;28;20040;-42
2022/01/18 04:41:05;;;;;;;70.45;10.80;;;;;;;3.40;97.15;103827.88;5032122;28;20042;-42
2022/01/18 04:48:58;;;;;;;68.03;10.95;;;;;;;3.35;97.87;103813.03;5035803;28;20484;-42
2022/01/18 04:51:24;;;;;;;56.72;10.55;;;;;;;3.32;97.10;103813.13;5038776;28;20029;-42
2022/01/18 04:53:54;;;;;;;47.15;9.35;;;;;;;3.33;97.12;103812.22;5044707;28;20029;-42
2022/01/18 04:56:29;;;;;;;48.95;9.68;;;;;;;3.32;97.49;103816.69;5050831;28;20039;-42
2022/01/18 04:58:56;;;;;;;62.30;9.75;;;;;;;3.29;97.68;103809.69;5035959;28;20473;-42
2022/01/18 05:01:21;;;;;;;39.88;8.15;;;;;;;3.41;98.99;103815.44;5035472;28;20048;-42
2022/01/18 05:03:46;;;;;;;56.80;8.45;;;;;;;3.47;99.54;103824.03;5026523;28;20378;-42
2022/01/18 05:06:15;;;;;;;66.68;7.28;;;;;;;3.51;100.00;103817.66;5035556;28;20121;-42
2022/01/18 05:08:41;;;;;;;41.40;7.78;;;;;;;3.55;100.00;103822.84;5033919;28;20042;-42
2022/01/18 05:11:08;;;;;;;101.40;10.52;;;;;;;3.56;100.00;103817.47;5035782;28;20155;-42
2022/01/18 05:16:29;;;;;;;43.28;8.43;;;;;;;3.62;100.00;103825.22;5016058;28;20052;-42
2022/01/18 05:21:28;;;;;;;43.88;8.48;;;;;;;3.62;100.00;103813.69;5035190;28;20036;-42
2022/01/18 05:23:54;;;;;;;57.13;8.82;;;;;;;3.65;100.00;103814.41;5035427;28;20033;-42
2022/01/18 05:26:20;;;;;;;36.45;6.75;;;;;;;3.64;100.00;103820.69;5035451;28;20021;-42
2022/01/18 05:28:46;;;;;;;41.75;6.70;;;;;;;3.59;100.00;103820.00;5029967;28;20393;-41
2022/01/18 05:31:11;;;;;;;40.72;9.32;;;;;;;3.57;99.66;103816.53;5035256;28;20025;-41
2022/01/18 05:33:38;;;;;;;38.53;7.15;;;;;;;3.55;100.00;103810.41;5030615;28;20087;-42
2022/01/18 05:36:04;;;;;;;52.00;7.40;;;;;;;3.51;99.59;103806.16;5030517;28;20041;-42
2022/01/18 05:38:32;;;;;;;29.55;6.43;;;;;;;3.50;100.00;103807.06;5027933;28;20033;-42
2022/01/18 05:40:57;;;;;;;45.92;6.88;;;;;;;3.48;100.00;103809.81;5033029;28;20127;-42
2022/01/18 05:43:23;;;;;;;36.13;7.00;;;;;;;3.44;100.00;103808.19;5033473;28;20480;-42
2022/01/18 05:45:49;;;;;;;47.05;6.82;;;;;;;3.43;100.00;103810.94;5033253;28;20041;-42
2022/01/18 05:48:15;;;;;;;23.25;6.30;;;;;;;3.38;99.81;103807.59;5034819;28;20033;-43
2022/01/18 05:50:40;;;;;;;31.85;7.53;;;;;;;3.36;99.68;103809.44;5034007;28;20032;-42
2022/01/18 05:53:05;;;;;;;35.67;7.68;;;;;;;3.30;99.79;103813.22;5033472;28;20034;-41
2022/01/18 05:55:32;;;;;;;43.05;7.15;;;;;;;3.27;99.61;103811.53;5034595;28;20037;-42
2022/01/18 05:57:58;;;;;;;37.50;7.20;;;;;;;3.24;99.82;103806.34;5049285;28;20033;-42
2022/01/18 06:00:24;;;;;;;25.27;7.30;;;;;;;3.16;99.18;103803.13;5034284;28;20026;-41
2022/01/18 06:08:07;;;;;;;34.08;7.10;;;;;;;3.03;99.19;103805.41;5033946;28;20053;-44
2022/01/18 06:10:32;;;;;;;28.83;7.68;;;;;;;2.95;99.17;103810.16;5033023;28;20025;-44
2022/01/18 06:13:01;;;;;;;45.53;8.18;;;;;;;2.93;99.16;103804.00;5033694;28;20037;-41
2022/01/18 06:15:26;;;;;;;26.75;7.82;;;;;;;2.85;99.30;103801.66;5032898;28;20037;-41
2022/01/18 06:17:51;;;;;;;45.00;8.55;;;;;;;2.84;99.26;103796.38;5032668;28;20478;-42
2022/01/18 06:20:17;;;;;;;28.88;8.15;;;;;;;2.83;99.46;103795.50;5031884;28;20037;-42
2022/01/18 06:22:42;;;;;;;45.15;9.43;;;;;;;2.82;98.96;103798.25;5025687;28;20129;-42
2022/01/18 06:25:08;;;;;;;34.75;9.43;;;;;;;2.79;99.38;103799.22;5028599;28;20037;-43
2022/01/18 06:27:33;;;;;;;41.30;10.48;;;;;;;2.76;99.14;103801.97;5034286;28;20045;-44
2022/01/18 06:29:59;;;;;;;40.60;11.43;;;;;;;2.77;99.62;103803.72;5026587;28;20081;-43
2022/01/18 06:32:25;;;;;;;60.85;10.13;;;;;;;2.77;99.85;103806.41;5021325;28;20125;-43
2022/01/18 06:36:59;;;;;;;43.05;9.25;;;;;;;2.73;99.65;103809.22;5063322;28;20393;-42
2022/01/18 06:39:24;;;;;;;30.08;7.63;;;;;;;2.68;99.59;103803.19;5060582;28;20038;-42
2022/01/18 06:41:49;;;;;;;29.33;8.45;;;;;;;2.64;99.02;103799.81;5047989;28;20037;-43
2022/01/18 06:44:15;;;;;;;51.72;9.25;;;;;;;2.60;99.13;103803.50;5080237;28;20029;-43
2022/01/18 06:46:40;;;;;;;69.78;10.13;;;;;;;2.58;99.08;103805.31;5049173;28;20112;-43
2022/01/18 06:49:06;;;;;;;69.90;7.25;;;;;;;2.59;99.07;103807.09;5050207;28;20075;-43
2022/01/18 06:51:32;;;;;;;20.90;6.63;;;;;;;2.47;98.42;103811.03;5067689;28;20020;-43
2022/01/18 06:53:57;;;;;;;54.28;7.07;;;;;;;2.49;98.76;103808.34;5068787;28;20040;-42
2022/01/18 06:56:23;;;;;;;74.10;7.97;;;;;;;2.52;99.59;103813.53;5067412;28;20092;-43
2022/01/18 06:58:49;;;;;;;31.95;8.13;;;;;;;2.55;99.92;103808.09;5064420;28;20033;-43
2022/01/18 07:01:15;;;;;;;33.53;7.60;;;;;;;2.53;99.74;103807.31;5066533;28;20434;-43
2022/01/18 07:03:41;;;;;;;37.17;9.20;;;;;;;2.49;100.00;103805.69;5066881;28;20025;-43
2022/01/18 07:06:06;;;;;;;34.85;9.07;;;;;;;2.45;99.55;103809.38;5070233;28;20421;-42
2022/01/18 07:08:32;;;;;;;42.15;8.43;;;;;;;2.48;99.77;103806.63;5062888;28;20129;-43
2022/01/18 07:10:58;;;;;;;30.50;8.80;;;;;;;2.45;99.65;103806.72;5050395;28;20030;-42
2022/01/18 07:13:23;;;;;;;58.67;11.90;;;;;;;2.47;99.89;103812.84;5049400;28;20516;-42
2022/01/18 07:15:49;;;;;;;62.60;10.85;;;;;;;2.48;99.84;103819.91;5061512;28;20033;-43
2022/01/18 07:18:14;;;;;;;48.08;9.52;;;;;;;2.51;100.00;103814.47;5051975;28;20276;-44
2022/01/18 07:20:41;;;;;;;52.28;10.75;;;;;;;2.48;99.79;103812.81;5050129;28;20029;-42
2022/01/18 07:23:08;;;;;;;42.38;10.60;;;;;;;2.52;99.58;103806.44;5062218;28;20029;-43
2022/01/18 07:25:33;;;;;;;37.95;9.30;;;;;;;2.50;100.00;103812.72;5056770;28;20378;-43
2022/01/18 07:27:59;;;;;;;120.80;10.18;;;;;;;2.53;100.00;103817.97;5049014;28;20083;-43
2022/01/18 07:30:24;;;;;;;23.27;7.75;;;;;;;2.42;99.43;103816.56;5058679;28;20024;-43
2022/01/18 07:32:50;;;;;;;45.25;9.77;;;;;;;2.42;99.23;103816.56;5058134;28;20040;-43
2022/01/18 07:35:16;;;;;;;87.32;9.05;;;;;;;2.47;99.17;103818.16;5053794;28;20041;-43
2022/01/18 07:37:41;;;;;;;48.90;9.18;;;;;;;2.50;99.80;103829.56;5054471;28;20753;-45
2022/01/18 07:40:08;;;;;;;32.53;7.43;;;;;;;2.52;100.00;103824.19;5053466;28;20037;-43
2022/01/18 07:42:34;;;;;;;55.65;8.27;;;;;;;2.55;99.85;103821.41;5047748;28;20473;-43
2022/01/18 07:45:00;;;;;;;33.92;7.90;;;;;;;2.56;99.83;103829.34;5050854;28;20496;-43
2022/01/18 07:47:25;;;;;;;30.55;7.75;;;;;;;2.50;99.63;103824.25;5059546;28;20040;-43
2022/01/18 07:49:50;;;;;;;26.98;7.05;;;;;;;2.56;99.46;103826.69;5041430;28;20040;-43
2022/01/18 07:52:16;;;;;;;50.80;6.75;;;;;;;2.50;99.07;103824.25;5040009;28;20035;-43
2022/01/18 07:54:42;;;;;;;70.47;10.43;;;;;;;2.49;98.47;103832.28;5041911;28;20056;-44
2022/01/18 07:57:08;;;;;;;26.08;7.57;;;;;;;2.44;98.22;103827.09;5042093;28;20072;-43
2022/01/18 07:59:33;;;;;;;28.83;6.53;;;;;;;2.39;98.64;103835.25;5050102;28;20043;-42
2022/01/18 08:01:58;;;;;;;60.30;7.53;;;;;;;2.35;99.22;103832.78;5042940;28;20033;-42
2022/01/18 08:04:24;;;;;;;58.50;7.30;;;;;;;2.40;99.78;103833.47;5035450;28;20018;-42
2022/01/18 08:06:49;;;;;;;39.72;7.97;;;;;;;2.40;99.86;103836.13;5040600;28;20033;-43
2022/01/18 08:09:18;;;;;;;27.45;8.25;;;;;;;2.50;100.00;103840.19;5050491;28;20025;-42
2022/01/18 08:11:44;;;;;;;46.03;8.63;;;;;;;2.57;100.00;103847.00;5039210;28;20035;-42
2022/01/18 08:14:13;;;;;;;45.45;16.48;;;;;;;2.57;100.00;103846.16;5046315;28;20029;-43
2022/01/18 08:16:48;;;;;;;64.63;9.75;;;;;;;2.55;99.45;103845.31;5039397;28;20021;-42
2022/01/18 08:19:14;;;;;;;27.30;7.93;;;;;;;2.68;99.22;103843.94;5052732;28;20112;-43
2022/01/18 08:21:39;;;;;;;45.45;9.30;;;;;;;2.82;99.75;103835.50;5053881;28;20104;-43
2022/01/18 08:24:04;;;;;;;32.85;7.97;;;;;;;2.86;99.50;103840.59;5048320;28;20117;-43
2022/01/18 08:26:30;;;;;;;47.17;9.55;;;;;;;2.86;100.00;103835.28;5034046;28;20077;-43
2022/01/18 08:28:55;;;;;;;44.63;10.43;;;;;;;2.79;99.86;103835.56;5035364;28;20520;-43
2022/01/18 08:31:20;;;;;;;47.55;10.80;;;;;;;2.81;100.00;103842.56;5045646;28;20033;-43
2022/01/18 08:33:46;;;;;;;48.20;11.50;;;;;;;2.88;100.00;103845.03;5041302;28;20113;-42
2022/01/18 08:36:12;;;;;;;66.65;13.27;;;;;;;2.96;100.00;103849.13;5045281;28;20073;-43
2022/01/18 08:38:39;;;;;;;86.85;14.25;;;;;;;2.95;100.00;103846.50;5039533;28;20017;-42
2022/01/18 08:41:05;;;;;;;82.23;17.53;;;;;;;2.93;100.00;103846.56;5037814;28;20021;-43
2022/01/18 08:43:31;;;;;;;183.07;18.30;;;;;;;2.74;100.00;103859.72;5049562;28;20071;-42
2022/01/18 08:45:58;;;;;;;159.00;17.63;;;;;;;2.73;100.00;103857.94;5042353;28;20056;-43
2022/01/18 08:48:23;;;;;;;116.50;16.17;;;;;;;2.77;100.00;103861.38;5042359;28;20141;-43
2022/01/18 08:50:48;;;;;;;205.63;17.08;;;;;;;2.75;100.00;103864.09;5033678;28;20052;-43
2022/01/18 08:53:14;;;;;;;235.90;20.13;;;;;;;2.71;100.00;103859.78;5043173;28;20433;-42
2022/01/18 08:55:39;;;;;;;284.60;19.55;;;;;;;2.67;100.00;103860.84;5050439;28;20453;-43
2022/01/18 08:58:04;;;;;;;220.05;20.60;;;;;;;2.71;100.00;103853.63;5021958;28;20032;-44
2022/01/18 09:00:30;;;;;;;255.52;21.52;;;;;;;2.77;100.00;103861.38;5051043;28;20036;-43
2022/01/18 09:02:56;;;;;;;137.02;17.73;;;;;;;2.81;100.00;103866.50;5051502;28;20028;-42
2022/01/18 09:05:23;;;;;;;135.75;17.73;;;;;;;2.96;100.00;103856.25;5045710;28;20025;-43
2022/01/18 09:07:52;;;;;;;90.80;17.25;;;;;;;3.08;100.00;103858.41;5047222;28;20089;-43
2022/01/18 09:10:24;;;;;;;191.57;19.05;;;;;;;3.14;100.00;103866.19;5055093;28;20119;-43
2022/01/18 09:12:50;;;;;;;136.10;16.33;;;;;;;3.19;100.00;103866.88;5061766;28;20108;-44
2022/01/18 09:15:15;;;;;;;116.60;16.58;;;;;;;3.20;100.00;103855.28;5042689;28;20113;-42
2022/01/18 09:17:41;;;;;;;211.80;19.55;;;;;;;3.12;100.00;103854.72;5044222;28;20036;-42
2022/01/18 09:20:08;;;;;;;183.63;17.83;;;;;;;3.01;100.00;103863.13;5051359;28;20021;-41
2022/01/18 09:22:37;;;;;;;205.55;16.83;;;;;;;2.94;100.00;103855.41;5052517;28;20114;-42
2022/01/18 09:25:04;;;;;;;140.05;18.00;;;;;;;2.90;100.00;103859.09;5051569;28;20393;-43
2022/01/18 09:27:29;;;;;;;115.20;17.45;;;;;;;2.86;100.00;103859.22;5052742;28;20025;-42
2022/01/18 09:29:55;;;;;;;182.05;16.50;;;;;;;2.89;100.00;103865.38;5051714;28;20040;-42
2022/01/18 09:32:21;;;;;;;99.32;14.18;;;;;;;3.04;100.00;103865.66;5051068;28;20033;-42
2022/01/18 09:34:46;;;;;;;148.07;14.98;;;;;;;3.05;100.00;103863.84;5050880;28;20083;-42
2022/01/18 09:37:11;;;;;;;163.23;16.10;;;;;;;3.12;100.00;103860.03;5032710;28;20108;-42
2022/01/18 09:39:38;;;;;;;147.48;18.27;;;;;;;3.12;100.00;103864.50;5034264;28;20492;-42
2022/01/18 09:42:04;;;;;;;201.13;16.63;;;;;;;3.16;99.99;103867.00;5038671;28;20031;-42
2022/01/18 09:44:30;;;;;;;243.93;18.58;;;;;;;3.22;100.00;103861.41;5045700;28;20017;-42
2022/01/18 09:46:55;;;;;;;265.08;22.52;;;;;;;3.24;100.00;103874.69;5031225;28;20120;-42
2022/01/18 09:49:22;;;;;;;144.55;14.73;;;;;;;3.21;100.00;103870.34;5032682;28;20029;-44
2022/01/18 09:51:48;;;;;;;178.85;17.02;;;;;;;3.13;100.00;103867.09;5044960;28;20039;-42
2022/01/18 09:54:13;;;;;;;144.38;16.92;;;;;;;3.29;100.00;103870.91;5052192;28;20123;-42
2022/01/18 09:56:39;;;;;;;247.55;22.17;;;;;;;3.37;100.00;103872.38;5038008;28;20017;-42
2022/01/18 09:59:06;;;;;;;211.27;18.80;;;;;;;3.45;100.00;103867.63;5034215;28;20103;-42
2022/01/18 10:01:31;;;;;;;96.13;17.42;;;;;;;3.67;100.00;103871.16;5035172;28;20041;-42
2022/01/18 10:04:13;;;;;;;176.75;17.98;;;;;;;3.70;100.00;103872.84;5040770;28;20447;-42
2022/01/18 10:06:40;;;;;;;91.78;15.57;;;;;;;3.79;100.00;103871.59;5033978;28;20371;-42
2022/01/18 10:09:10;;;;;;;108.22;17.30;;;;;;;3.94;99.90;103869.16;5033427;28;20033;-42
2022/01/18 10:11:35;;;;;;;210.27;21.02;;;;;;;3.98;98.75;103872.56;5032439;28;20083;-43
2022/01/18 10:14:01;;;;;;;145.95;18.08;;;;;;;3.95;98.71;103868.25;5049850;28;20033;-42
2022/01/18 10:16:26;;;;;;;265.02;23.42;;;;;;;3.93;98.37;103871.91;5047891;28;20024;-42
2022/01/18 10:19:02;;;;;;;189.77;21.15;;;;;;;3.73;99.13;103873.56;5044593;28;20108;-42
2022/01/18 10:21:34;;;;;;;113.10;20.23;;;;;;;3.68;99.64;103864.03;5045780;28;20092;-42
2022/01/18 10:24:10;;;;;;;163.90;21.88;;;;;;;3.77;100.00;103868.16;5032458;28;20029;-41
2022/01/18 10:26:38;;;;;;;135.43;21.27;;;;;;;3.74;100.00;103874.47;5034135;28;20040;-41
2022/01/18 10:29:05;;;;;;;156.13;21.55;;;;;;;3.79;100.00;103877.81;5034414;28;20051;-41
2022/01/18 10:31:55;;;;;;;350.73;25.50;;;;;;;3.66;100.00;103881.88;5035585;28;20359;-41
2022/01/18 10:36:58;;;;;;;205.73;22.33;;;;;;;3.67;100.00;103868.50;5043729;28;20136;-41
2022/01/18 10:39:48;;;;;;;395.73;32.50;;;;;;;3.60;100.00;103875.00;5045504;28;20501;-41
2022/01/18 10:42:32;;;;;;;218.52;26.55;;;;;;;3.74;100.00;103878.00;5031679;28;20058;-41
2022/01/18 10:45:33;;;;;;;455.42;33.63;;;;;;;3.65;100.00;103881.00;5038957;28;20043;-41
2022/01/18 10:47:59;;;;;;;280.10;30.25;;;;;;;3.69;100.00;103864.00;5049162;28;20388;-41
2022/01/18 10:50:26;;;;;;;457.17;31.67;;;;;;;3.68;100.00;103864.91;5051497;28;20503;-41
2022/01/18 10:52:53;;;;;;;465.52;37.00;;;;;;;3.60;100.00;103872.34;5042770;28;20470;-41
2022/01/18 10:55:24;;;;;;;371.42;33.05;;;;;;;3.60;100.00;103876.81;5031471;28;20026;-41
2022/01/18 10:57:51;;;;;;;262.92;33.03;;;;;;;3.66;100.00;103872.09;5047052;28;20034;-41
2022/01/18 11:00:17;;;;;;;255.48;32.13;;;;;;;3.75;100.00;103865.53;5046357;28;20108;-42
2022/01/18 11:02:46;;;;;;;262.75;32.20;;;;;;;3.87;100.00;103866.81;5047640;28;20033;-41
2022/01/18 11:05:18;;;;;;;201.05;30.50;;;;;;;3.93;100.00;103874.56;5044625;28;20078;-42
2022/01/18 11:07:45;;;;;;;239.52;30.35;;;;;;;3.87;100.00;103869.47;5049242;28;20029;-42
2022/01/18 11:10:12;;;;;;;301.90;33.22;;;;;;;3.78;100.00;103860.06;5051738;28;20044;-41
2022/01/18 11:12:54;;;;;;;252.50;34.08;;;;;;;3.81;100.00;103857.28;5051486;28;20425;-41
2022/01/18 11:15:21;;;;;;;196.55;32.78;;;;;;;3.85;100.00;103863.38;5051503;28;20031;-41
2022/01/18 11:17:58;;;;;;;195.00;32.75;;;;;;;3.81;100.00;103851.09;5051660;28;20029;-41
2022/01/18 11:20:25;;;;;;;229.75;35.38;;;;;;;3.91;100.00;103855.09;5049632;28;20024;-41
2022/01/18 11:22:51;;;;;;;181.77;33.55;;;;;;;4.06;100.00;103853.59;5053613;28;20035;-41
2022/01/18 11:25:17;;;;;;;207.35;36.38;;;;;;;4.16;100.00;103852.25;5053855;28;20033;-41
2022/01/18 11:27:47;;;;;;;211.05;34.25;;;;;;;4.17;100.00;103854.84;5055287;28;20101;-40
2022/01/18 11:30:13;;;;;;;201.43;34.72;;;;;;;4.22;100.00;103851.13;5048724;28;20346;-42
2022/01/18 11:32:39;;;;;;;200.32;27.17;;;;;;;4.05;100.00;103858.03;5048185;28;20469;-41
2022/01/18 11:35:19;;;;;;;190.40;26.10;;;;;;;4.01;100.00;103861.78;5049743;28;20045;-41
2022/01/18 11:38:22;;;;;;;163.30;26.13;;;;;;;3.99;100.00;103847.66;5046305;28;20041;-42
2022/01/18 11:40:55;;;;;;;95.07;23.67;;;;;;;4.13;100.00;103847.94;5035085;28;20018;-42
2022/01/18 11:43:47;;;;;;;108.75;20.67;;;;;;;4.24;100.00;103846.59;5045400;28;20048;-41
2022/01/18 11:46:31;;;;;;;151.60;19.95;;;;;;;4.14;100.00;103840.81;5043246;28;20217;-41
2022/01/18 11:49:07;;;;;;;81.45;20.10;;;;;;;4.28;100.00;103833.06;5044912;28;20095;-41
2022/01/18 11:51:38;;;;;;;138.68;20.40;;;;;;;4.24;100.00;103835.91;5042619;28;20025;-41
2022/01/18 11:54:28;;;;;;;88.57;18.80;;;;;;;4.28;100.00;103834.88;5047114;28;20021;-42
2022/01/18 11:56:54;;;;;;;146.52;19.30;;;;;;;4.15;100.00;103831.88;5046011;28;20507;-42
2022/01/18 11:59:36;;;;;;;94.15;19.08;;;;;;;4.26;100.00;103823.41;5040065;28;20025;-43
2022/01/18 12:02:05;;;;;;;125.75;21.67;;;;;;;4.37;100.00;103826.44;5040725;28;20122;-42
2022/01/18 12:07:04;;;;;;;110.22;20.77;;;;;;;4.52;100.00;103824.91;5054477;28;20130;-42
2022/01/18 12:09:47;;;;;;;85.65;20.92;;;;;;;4.67;100.00;103813.53;5054274;28;20512;-42
2022/01/18 12:12:46;;;;;;;109.22;20.30;;;;;;;4.68;100.00;103815.25;5053599;28;20032;-42
2022/01/18 12:15:18;;;;;;;107.00;19.63;;;;;;;4.76;100.00;103812.25;5054103;28;20036;-42
2022/01/18 12:17:49;;;;;;;114.75;20.10;;;;;;;4.77;100.00;103808.66;5054585;28;20025;-42
2022/01/18 12:20:43;;;;;;;120.50;22.15;;;;;;;4.86;100.00;103815.38;5052675;28;20140;-42
2022/01/18 12:23:12;;;;;;;108.40;20.13;;;;;;;4.96;100.00;103804.19;5053406;28;20435;-42
2022/01/18 12:26:14;;;;;;;142.73;21.90;;;;;;;4.87;100.00;103799.28;5050165;28;20115;-42